Time;durP1;ratioP1;P1;durP2;ratioP2;P2;SDS_P1;SDS_P2;PMS_P1;PMS_P2;Temp;Humidity;BMP_temperature;BMP_pressure;BME280_temperature;BME280_humidity;BME280_pressure;Samples;Min_cycle;Max_cycle;Signal;HPM_P1;HPM_P2
2023/07/20 00:01:49;;;;;;;6.60;5.20;;;;;;;19.19;100.00;96742.73;110169;1243;59666;-72
2023/07/20 00:04:20;;;;;;;6.60;5.50;;;;;;;19.17;100.00;96740.56;110168;1245;71479;-73
2023/07/20 00:06:50;;;;;;;7.30;6.00;;;;;;;19.15;100.00;96734.36;110421;1241;69802;-72
2023/07/20 00:09:21;;;;;;;6.30;4.50;;;;;;;19.15;100.00;96732.07;110198;1241;69310;-74
2023/07/20 00:11:52;;;;;;;7.30;5.20;;;;;;;19.16;100.00;96733.88;110193;1244;59691;-71
2023/07/20 00:14:22;;;;;;;6.50;5.40;;;;;;;19.15;100.00;96737.01;110173;1244;59753;-72
2023/07/20 00:16:56;;;;;;;6.40;5.00;;;;;;;19.13;100.00;96737.78;110137;1244;71625;-71
2023/07/20 00:19:28;;;;;;;8.80;5.90;;;;;;;19.10;100.00;96739.21;110169;1245;69256;-72
2023/07/20 00:22:01;;;;;;;7.20;5.40;;;;;;;19.05;100.00;96740.55;110106;1245;68541;-72
2023/07/20 00:24:34;;;;;;;6.60;5.20;;;;;;;19.01;100.00;96741.52;110184;1241;59697;-72
2023/07/20 00:27:06;;;;;;;5.20;4.60;;;;;;;18.99;100.00;96743.14;110163;1243;59686;-72
2023/07/20 00:29:37;;;;;;;8.70;5.30;;;;;;;18.97;100.00;96745.40;110162;1244;71407;-74
2023/07/20 00:32:07;;;;;;;7.50;5.40;;;;;;;18.95;100.00;96738.03;110143;1241;68353;-73
2023/07/20 00:34:37;;;;;;;6.70;4.60;;;;;;;18.91;100.00;96738.88;110139;1244;68957;-73
2023/07/20 00:37:08;;;;;;;6.10;4.30;;;;;;;18.85;100.00;96731.36;110095;1244;59709;-73
2023/07/20 00:39:37;;;;;;;5.20;4.70;;;;;;;18.82;100.00;96727.30;110104;1241;59696;-71
2023/07/20 00:42:07;;;;;;;5.80;4.60;;;;;;;18.79;100.00;96717.59;110111;1243;71451;-73
2023/07/20 00:44:37;;;;;;;8.00;4.70;;;;;;;18.76;100.00;96721.31;110092;1244;69816;-71
2023/07/20 00:47:10;;;;;;;6.50;4.50;;;;;;;18.73;100.00;96720.27;110150;1242;69319;-72
2023/07/20 00:49:42;;;;;;;5.80;4.90;;;;;;;18.70;100.00;96713.36;110144;1243;60103;-73
2023/07/20 00:52:14;;;;;;;6.80;4.70;;;;;;;18.66;100.00;96707.08;110197;1244;59664;-73
2023/07/20 00:54:46;;;;;;;7.80;5.30;;;;;;;18.64;100.00;96699.80;110145;1241;71495;-74
2023/07/20 00:57:19;;;;;;;7.40;5.60;;;;;;;18.60;100.00;96696.85;110067;1244;69238;-71
2023/07/20 00:59:52;;;;;;;5.30;4.80;;;;;;;18.57;100.00;96697.01;110103;1244;69815;-73
2023/07/20 01:02:28;;;;;;;5.20;4.60;;;;;;;18.55;100.00;96700.11;110138;1244;59679;-73
2023/07/20 01:05:01;;;;;;;5.20;4.40;;;;;;;18.52;100.00;96701.15;110214;1243;59691;-73
2023/07/20 01:08:06;;;;;;;5.70;4.60;;;;;;;18.51;100.00;96698.77;110469;1241;71355;-72
2023/07/20 01:10:53;;;;;;;7.00;4.90;;;;;;;18.50;100.00;96699.38;110142;1241;68589;-72
2023/07/20 01:13:31;;;;;;;8.10;5.40;;;;;;;18.50;100.00;96695.39;110176;1243;69094;-73
2023/07/20 01:16:02;;;;;;;7.50;5.40;;;;;;;18.51;100.00;96702.52;110107;1241;59729;-72
2023/07/20 01:18:34;;;;;;;6.60;5.10;;;;;;;18.51;100.00;96704.93;110188;1241;59729;-73
2023/07/20 01:21:21;;;;;;;5.10;4.30;;;;;;;18.50;100.00;96704.51;110135;1244;71413;-74
2023/07/20 01:24:19;;;;;;;5.90;4.90;;;;;;;18.49;100.00;96703.96;110165;1243;68518;-73
2023/07/20 01:27:12;;;;;;;6.40;4.40;;;;;;;18.45;100.00;96707.23;110182;1243;69238;-72
2023/07/20 01:29:50;;;;;;;6.90;5.10;;;;;;;18.44;100.00;96703.01;110175;1241;59712;-71
2023/07/20 01:32:29;;;;;;;6.60;4.50;;;;;;;18.43;100.00;96701.73;110176;1243;59726;-73
2023/07/20 01:35:01;;;;;;;6.30;5.00;;;;;;;18.42;100.00;96696.86;110147;1251;71223;-74
2023/07/20 01:37:34;;;;;;;6.00;5.20;;;;;;;18.43;100.00;96695.90;110197;1244;69316;-73
2023/07/20 01:40:09;;;;;;;7.30;6.50;;;;;;;18.42;100.00;96690.69;110208;1243;69241;-72
2023/07/20 01:42:46;;;;;;;7.40;5.80;;;;;;;18.41;100.00;96691.37;110225;1243;59746;-73
2023/07/20 01:45:21;;;;;;;6.30;5.10;;;;;;;18.41;100.00;96696.09;110153;1244;59670;-72
2023/07/20 01:47:54;;;;;;;5.20;4.60;;;;;;;18.41;100.00;96700.69;110209;1241;70674;-72
2023/07/20 01:50:29;;;;;;;7.00;5.10;;;;;;;18.39;100.00;96701.42;110190;1242;70141;-71
2023/07/20 01:53:03;;;;;;;6.60;4.50;;;;;;;18.38;100.00;96698.92;110119;1241;67393;-71
2023/07/20 01:55:33;;;;;;;4.90;4.20;;;;;;;18.35;100.00;96698.54;110183;1241;59744;-73
2023/07/20 01:58:05;;;;;;;7.10;4.10;;;;;;;18.32;100.00;96697.77;110118;1244;59717;-73
2023/07/20 02:00:38;;;;;;;5.60;4.30;;;;;;;18.28;100.00;96693.31;110130;1244;71193;-73
2023/07/20 02:03:09;;;;;;;6.30;4.50;;;;;;;18.25;100.00;96693.99;110150;1244;68494;-73
2023/07/20 02:05:42;;;;;;;7.60;4.60;;;;;;;18.24;100.00;96694.13;110293;1245;69267;-73
2023/07/20 02:08:13;;;;;;;6.30;4.30;;;;;;;18.22;100.00;96688.20;110381;1244;59741;-73
2023/07/20 02:10:49;;;;;;;7.20;5.50;;;;;;;18.20;100.00;96688.11;110209;1245;59664;-74
2023/07/20 02:13:19;;;;;;;6.90;4.90;;;;;;;18.17;100.00;96691.27;110175;1244;70823;-73
2023/07/20 02:15:50;;;;;;;6.90;5.70;;;;;;;18.15;100.00;96691.92;110161;1243;69258;-72
2023/07/20 02:18:23;;;;;;;6.20;5.30;;;;;;;18.13;100.00;96690.71;110153;1241;68535;-74
2023/07/20 02:20:54;;;;;;;5.10;4.20;;;;;;;18.10;100.00;96692.13;110133;1241;59757;-73
2023/07/20 02:23:26;;;;;;;6.80;5.00;;;;;;;18.06;100.00;96697.84;110171;1242;59740;-74
2023/07/20 02:25:56;;;;;;;6.60;5.10;;;;;;;18.03;100.00;96698.35;110189;1243;72111;-73
2023/07/20 02:28:27;;;;;;;6.30;4.30;;;;;;;18.00;100.00;96691.49;110144;1244;68396;-71
2023/07/20 02:30:58;;;;;;;7.20;4.80;;;;;;;17.98;100.00;96682.90;110154;1241;69086;-70
2023/07/20 02:33:32;;;;;;;6.10;5.00;;;;;;;17.95;100.00;96683.42;110128;1244;59702;-73
2023/07/20 02:36:04;;;;;;;7.20;4.70;;;;;;;17.91;100.00;96684.80;110191;1241;59693;-73
2023/07/20 02:38:34;;;;;;;6.40;5.00;;;;;;;17.87;100.00;96682.78;110142;1244;71404;-72
2023/07/20 02:41:04;;;;;;;;;;;;;;;17.83;100.00;96688.12;110186;1244;69788;-72
2023/07/20 02:43:36;;;;;;;7.60;4.80;;;;;;;17.78;100.00;96695.36;110125;1244;69314;-72
2023/07/20 02:46:08;;;;;;;7.90;6.10;;;;;;;17.70;100.00;96696.92;110150;1243;60078;-70
2023/07/20 02:48:39;;;;;;;6.90;5.00;;;;;;;17.64;100.00;96693.98;110190;1245;59637;-71
2023/07/20 02:51:12;;;;;;;5.90;4.80;;;;;;;17.58;100.00;96687.20;110188;1241;71457;-73
2023/07/20 02:53:42;;;;;;;7.00;5.10;;;;;;;17.55;100.00;96681.04;110168;1241;69321;-73
2023/07/20 02:56:12;;;;;;;6.60;4.70;;;;;;;17.54;100.00;96689.47;110161;1241;69409;-73
2023/07/20 02:58:45;;;;;;;7.30;5.20;;;;;;;17.53;100.00;96692.35;110130;1241;59703;-72
2023/07/20 03:01:15;;;;;;;7.90;5.90;;;;;;;17.52;100.00;96686.45;110151;1244;59706;-72
2023/07/20 03:03:46;;;;;;;7.90;6.20;;;;;;;17.52;100.00;96682.95;110185;1241;71645;-73
2023/07/20 03:06:16;;;;;;;6.90;5.30;;;;;;;17.50;100.00;96687.56;110229;1243;69117;-73
2023/07/20 03:08:51;;;;;;;4.40;3.90;;;;;;;17.49;100.00;96696.25;110436;1243;69245;-74
2023/07/20 03:11:22;;;;;;;5.50;3.80;;;;;;;17.48;100.00;96694.13;110210;1244;59747;-74
2023/07/20 03:13:53;;;;;;;5.70;4.00;;;;;;;17.46;100.00;96701.09;110204;1242;60017;-74
2023/07/20 03:16:24;;;;;;;6.50;4.90;;;;;;;17.44;100.00;96707.09;110099;1241;71223;-71
2023/07/20 03:18:54;;;;;;;4.70;4.20;;;;;;;17.45;100.00;96707.38;110173;1241;68749;-73
2023/07/20 03:21:26;;;;;;;6.80;4.70;;;;;;;17.48;100.00;96706.38;110128;1241;69298;-71
2023/07/20 03:23:57;;;;;;;5.80;4.50;;;;;;;17.52;100.00;96707.48;110101;1241;59773;-72
2023/07/20 03:26:28;;;;;;;6.60;4.60;;;;;;;17.56;100.00;96711.95;110181;1244;59670;-72
2023/07/20 03:28:59;;;;;;;8.00;5.80;;;;;;;17.62;100.00;96711.14;110134;1241;70640;-72
2023/07/20 03:31:28;;;;;;;;;;;;;;;17.69;100.00;96717.85;110092;1244;69209;-72
2023/07/20 03:34:00;;;;;;;6.70;5.10;;;;;;;17.72;100.00;96719.61;110127;1241;69093;-70
2023/07/20 03:36:31;;;;;;;7.40;5.30;;;;;;;17.75;100.00;96721.05;110182;1244;59682;-73
2023/07/20 03:39:02;;;;;;;6.20;4.80;;;;;;;17.79;100.00;96724.83;110150;1245;59703;-72
2023/07/20 03:41:32;;;;;;;7.40;5.50;;;;;;;17.81;100.00;96720.89;109581;1244;715866;-70
2023/07/20 03:44:02;;;;;;;7.50;6.00;;;;;;;17.85;100.00;96726.35;110144;1241;68426;-74
2023/07/20 03:46:33;;;;;;;5.80;5.20;;;;;;;17.87;100.00;96727.36;110113;1241;69222;-74
2023/07/20 03:49:03;;;;;;;6.90;4.80;;;;;;;17.88;100.00;96734.62;110148;1241;59711;-72
2023/07/20 03:51:34;;;;;;;7.30;5.00;;;;;;;17.89;100.00;96735.88;110194;1243;59709;-74
2023/07/20 03:54:04;;;;;;;6.50;4.30;;;;;;;17.93;100.00;96744.27;110149;1244;70558;-73
2023/07/20 03:56:35;;;;;;;6.90;5.30;;;;;;;17.96;100.00;96745.52;110159;1243;69426;-72
2023/07/20 03:59:05;;;;;;;6.40;4.60;;;;;;;17.99;100.00;96745.91;110174;1241;69365;-73
2023/07/20 04:01:36;;;;;;;5.70;4.40;;;;;;;18.02;100.00;96750.80;109822;1241;59747;-73
2023/07/20 04:04:08;;;;;;;5.90;4.60;;;;;;;18.05;100.00;96752.57;110127;1241;60513;-74
2023/07/20 04:06:38;;;;;;;5.30;4.20;;;;;;;18.08;100.00;96751.86;110200;1241;71336;-74
2023/07/20 04:09:08;;;;;;;6.30;5.30;;;;;;;18.13;100.00;96753.66;110470;1244;69707;-73
2023/07/20 04:11:38;;;;;;;6.10;4.90;;;;;;;18.18;100.00;96755.02;110198;1245;69500;-74
2023/07/20 04:14:08;;;;;;;6.50;5.20;;;;;;;18.24;100.00;96756.77;110173;1241;60099;-72
2023/07/20 04:16:39;;;;;;;6.90;5.00;;;;;;;18.31;100.00;96757.46;110135;1244;60139;-73
2023/07/20 04:19:09;;;;;;;8.10;5.50;;;;;;;18.42;100.00;96759.62;110150;1243;70698;-73
2023/07/20 04:21:41;;;;;;;7.90;5.90;;;;;;;18.53;100.00;96762.25;110168;1245;68493;-72
2023/07/20 04:24:10;;;;;;;5.80;4.30;;;;;;;18.63;100.00;96766.55;110109;1241;70248;-73
2023/07/20 04:26:41;;;;;;;5.40;4.20;;;;;;;18.77;100.00;96757.59;110050;1244;59694;-74
2023/07/20 04:29:11;;;;;;;6.30;4.40;;;;;;;18.93;100.00;96752.71;110109;1241;59676;-75
2023/07/20 04:31:44;;;;;;;6.10;5.40;;;;;;;19.13;100.00;96753.75;110100;1241;71560;-74
2023/07/20 04:34:14;;;;;;;4.80;4.30;;;;;;;19.25;100.00;96752.83;110146;1244;69242;-71
2023/07/20 04:36:44;;;;;;;;;;;;;;;19.33;100.00;96753.80;110171;1243;69550;-72
2023/07/20 04:39:16;;;;;;;5.20;3.90;;;;;;;19.38;100.00;96758.16;110126;1243;59753;-73
2023/07/20 04:42:03;;;;;;;4.80;3.60;;;;;;;19.40;100.00;96761.80;110137;1243;60159;-73
2023/07/20 04:44:32;;;;;;;5.70;3.80;;;;;;;19.44;100.00;96768.73;110135;1241;71231;-72
2023/07/20 04:47:03;;;;;;;4.20;3.40;;;;;;;19.52;100.00;96769.07;110193;1243;69732;-72
2023/07/20 04:49:36;;;;;;;5.00;4.10;;;;;;;19.61;100.00;96773.05;110089;1244;69346;-74
2023/07/20 04:52:06;;;;;;;4.30;3.50;;;;;;;19.72;100.00;96781.68;110135;1241;59745;-73
2023/07/20 04:54:37;;;;;;;4.00;3.50;;;;;;;19.80;100.00;96785.63;110080;1244;59810;-72
2023/07/20 04:57:13;;;;;;;4.90;4.30;;;;;;;19.91;100.00;96786.47;110164;1241;71260;-74
2023/07/20 04:59:47;;;;;;;6.00;4.70;;;;;;;20.06;100.00;96781.23;110144;1244;69243;-71
2023/07/20 05:02:16;;;;;;;5.70;4.70;;;;;;;20.15;100.00;96781.77;110065;1244;69895;-72
2023/07/20 05:04:46;;;;;;;7.10;4.50;;;;;;;20.25;100.00;96778.75;110156;1241;59664;-73
2023/07/20 05:07:15;;;;;;;;;;;;;;;20.39;100.00;96774.23;110114;1241;59743;-73
2023/07/20 05:09:44;;;;;;;4.80;4.20;;;;;;;20.54;100.00;96769.06;110122;1241;72054;-72
2023/07/20 05:12:13;;;;;;;;;;;;;;;20.70;100.00;96764.07;110191;1243;69154;-73
2023/07/20 05:14:42;;;;;;;5.40;4.30;;;;;;;20.91;100.00;96765.46;110079;1244;69234;-71
2023/07/20 05:17:12;;;;;;;;;;;;;;;21.19;100.00;96766.63;110169;1244;59728;-73
2023/07/20 05:19:41;;;;;;;5.10;3.70;;;;;;;21.56;100.00;96761.04;110144;1241;59692;-73
2023/07/20 05:22:15;;;;;;;5.20;3.40;;;;;;;21.98;100.00;96762.30;110179;1241;71430;-73
2023/07/20 05:24:44;;;;;;;6.70;3.10;;;;;;;22.46;100.00;96761.23;110128;1244;68485;-72
2023/07/20 05:27:14;;;;;;;;;;;;;;;22.86;100.00;96762.98;110219;1241;68437;-72
2023/07/20 05:29:44;;;;;;;;;;;;;;;23.18;98.67;96764.77;110213;1243;59699;-74
2023/07/20 05:32:13;;;;;;;4.40;3.00;;;;;;;23.49;96.93;96763.60;110140;1243;59710;-73
2023/07/20 05:34:42;;;;;;;4.60;3.00;;;;;;;23.95;97.96;96759.45;110189;1241;71392;-72
2023/07/20 05:37:12;;;;;;;;;;;;;;;24.35;94.60;96760.73;110178;1245;69242;-72
2023/07/20 05:39:43;;;;;;;4.10;3.20;;;;;;;24.49;91.10;96762.02;110138;1243;67548;-73
2023/07/20 05:42:12;;;;;;;4.50;2.90;;;;;;;24.49;88.35;96760.86;110201;1243;59671;-72
2023/07/20 05:44:42;;;;;;;;;;;;;;;24.56;89.57;96759.86;110176;1241;59709;-72
2023/07/20 05:47:11;;;;;;;6.00;3.70;;;;;;;24.55;89.24;96758.72;110112;1244;71464;-72
2023/07/20 05:49:40;;;;;;;5.70;3.20;;;;;;;24.48;86.63;96759.27;110196;1243;70213;-72
2023/07/20 05:52:09;;;;;;;;;;;;;;;24.54;89.08;96760.63;110167;1243;69863;-69
2023/07/20 05:54:39;;;;;;;4.40;3.30;;;;;;;24.40;87.12;96753.71;110160;1243;59692;-72
2023/07/20 05:57:08;;;;;;;5.70;3.70;;;;;;;24.24;86.75;96752.71;110148;1244;59675;-72
2023/07/20 05:59:38;;;;;;;4.40;3.70;;;;;;;24.14;88.86;96749.72;110161;1241;70492;-73
2023/07/20 06:02:08;;;;;;;4.40;3.30;;;;;;;24.00;88.98;96752.12;110120;1245;69223;-74
2023/07/20 06:04:38;;;;;;;5.70;3.80;;;;;;;23.96;89.29;96752.92;110164;1241;68725;-74
2023/07/20 06:07:07;;;;;;;4.60;3.60;;;;;;;23.99;89.37;96750.40;110173;1245;60050;-75
2023/07/20 06:09:37;;;;;;;5.90;3.90;;;;;;;24.07;88.29;96748.48;110184;1244;59698;-74
2023/07/20 06:12:08;;;;;;;6.40;3.70;;;;;;;24.16;89.02;96748.77;110210;1245;70665;-76
2023/07/20 06:14:37;;;;;;;5.20;3.70;;;;;;;24.13;85.89;96749.72;110219;1242;68454;-75
2023/07/20 06:17:06;;;;;;;7.00;4.10;;;;;;;24.51;88.29;96749.49;110143;1244;67687;-75
2023/07/20 06:19:35;;;;;;;6.90;4.20;;;;;;;24.90;85.51;96749.67;110165;1245;59761;-75
2023/07/20 06:22:04;;;;;;;5.70;4.20;;;;;;;25.10;80.78;96745.86;110113;1241;59756;-73
2023/07/20 06:24:34;;;;;;;5.70;3.80;;;;;;;25.30;80.08;96743.84;110229;1244;70675;-75
2023/07/20 06:27:05;;;;;;;4.90;3.80;;;;;;;25.60;79.92;96741.14;110211;1240;69857;-76
2023/07/20 06:29:34;;;;;;;5.30;3.80;;;;;;;26.07;79.05;96752.65;110205;1248;69778;-76
2023/07/20 06:32:03;;;;;;;;;;;;;;;26.53;76.59;96757.27;110243;1240;59729;-76
2023/07/20 06:34:36;;;;;;;;;;;;;;;26.87;74.47;96755.16;110282;1241;59793;-76
2023/07/20 06:37:06;;;;;;;4.50;3.20;;;;;;;27.26;74.59;96756.48;110245;1242;71808;-76
2023/07/20 06:39:35;;;;;;;4.20;3.30;;;;;;;27.23;68.83;96756.73;110251;1242;69239;-73
2023/07/20 06:42:07;;;;;;;5.90;3.40;;;;;;;27.45;68.01;96747.90;110207;1240;69804;-76
2023/07/20 06:44:36;;;;;;;;;;;;;;;27.45;67.82;96749.84;110203;1242;59688;-74
2023/07/20 06:47:05;;;;;;;5.00;3.50;;;;;;;27.53;68.25;96749.30;110271;1242;59669;-75
2023/07/20 06:49:35;;;;;;;5.90;3.30;;;;;;;27.74;67.13;96748.54;110226;1242;71108;-75
2023/07/20 06:52:05;;;;;;;5.10;3.70;;;;;;;28.00;68.11;96754.35;110278;1242;68518;-77
2023/07/20 06:54:34;;;;;;;5.20;3.50;;;;;;;28.14;65.98;96757.48;110204;1240;69430;-75
2023/07/20 06:57:05;;;;;;;5.10;3.60;;;;;;;28.21;66.47;96757.83;110241;1242;59753;-74
2023/07/20 06:59:37;;;;;;;5.80;3.50;;;;;;;28.25;64.93;96756.45;110149;1242;59678;-74
2023/07/20 07:02:10;;;;;;;6.00;4.10;;;;;;;28.49;65.85;96759.73;110217;1242;71380;-75
2023/07/20 07:04:43;;;;;;;4.20;3.60;;;;;;;28.69;64.40;96762.66;110384;1242;68548;-75
2023/07/20 07:07:14;;;;;;;4.90;3.60;;;;;;;28.90;63.91;96763.20;110208;1243;69308;-75
2023/07/20 07:09:54;;;;;;;4.30;3.90;;;;;;;28.93;61.62;96762.64;110254;1242;59721;-77
2023/07/20 07:12:23;;;;;;;4.90;3.60;;;;;;;28.90;61.80;96765.29;110235;1242;59763;-74
2023/07/20 07:14:53;;;;;;;;;;;;;;;29.05;61.09;96765.61;110231;1241;70612;-75
2023/07/20 07:17:22;;;;;;;4.80;3.50;;;;;;;29.18;60.88;96768.34;110315;1240;69686;-77
2023/07/20 07:19:56;;;;;;;7.10;3.90;;;;;;;28.82;60.32;96766.75;110180;1242;69982;-75
2023/07/20 07:22:26;;;;;;;7.00;4.20;;;;;;;28.52;61.56;96766.33;110246;1242;59700;-75
2023/07/20 07:24:55;;;;;;;5.30;3.50;;;;;;;28.55;60.79;96762.09;110087;1245;59750;-76
2023/07/20 07:27:24;;;;;;;5.00;3.60;;;;;;;28.86;59.51;96764.52;110204;1240;70976;-75
2023/07/20 07:29:54;;;;;;;5.30;3.50;;;;;;;29.17;60.16;96765.52;110220;1242;69264;-74
2023/07/20 07:32:24;;;;;;;7.40;4.00;;;;;;;29.40;59.87;96764.86;110214;1242;69246;-75
2023/07/20 07:34:53;;;;;;;6.60;3.70;;;;;;;29.83;57.47;96766.61;110356;1242;59760;-75
2023/07/20 07:37:23;;;;;;;4.10;3.10;;;;;;;30.28;56.74;96763.05;110137;1245;59724;-77
2023/07/20 07:39:52;;;;;;;4.30;3.90;;;;;;;30.15;55.67;96758.44;110214;1242;71416;-77
2023/07/20 07:42:20;;;;;;;;;;;;;;;29.84;55.69;96761.41;110190;1242;69554;-76
2023/07/20 07:44:52;;;;;;;5.50;4.00;;;;;;;29.43;56.92;96761.41;110148;1241;68724;-76
2023/07/20 07:47:21;;;;;;;4.90;3.60;;;;;;;29.75;56.32;96757.03;110191;1241;59723;-75
2023/07/20 07:49:51;;;;;;;4.40;3.80;;;;;;;29.96;54.71;96756.33;110224;1242;59743;-76
2023/07/20 07:52:20;;;;;;;6.20;4.50;;;;;;;29.90;53.93;96754.20;110177;1240;71347;-76
2023/07/20 07:54:49;;;;;;;9.50;4.10;;;;;;;30.22;55.00;96759.63;110210;1241;69413;-77
2023/07/20 07:57:18;;;;;;;5.30;4.00;;;;;;;30.73;55.10;96760.77;110327;1242;69114;-76
2023/07/20 07:59:47;;;;;;;6.30;4.30;;;;;;;31.16;53.16;96759.63;110299;1242;59700;-76
2023/07/20 08:02:17;;;;;;;5.10;4.00;;;;;;;31.66;51.67;96755.13;110252;1241;59672;-76
2023/07/20 08:04:46;;;;;;;5.90;4.00;;;;;;;31.60;49.36;96753.14;110303;1242;71994;-75
2023/07/20 08:07:15;;;;;;;5.70;4.00;;;;;;;31.82;49.57;96752.48;110368;1242;69212;-76
2023/07/20 08:09:44;;;;;;;7.80;4.50;;;;;;;32.16;49.84;96754.62;110187;1241;69601;-75
2023/07/20 08:12:17;;;;;;;6.70;4.80;;;;;;;32.56;48.88;96760.55;110232;1247;59735;-75
2023/07/20 08:14:46;;;;;;;6.00;4.40;;;;;;;32.93;47.65;96755.40;110221;1242;59814;-76
2023/07/20 08:17:15;;;;;;;6.60;4.60;;;;;;;33.07;46.54;96754.77;110344;1241;71250;-76
2023/07/20 08:19:46;;;;;;;6.70;4.80;;;;;;;33.04;46.01;96750.53;110308;1242;69756;-76
2023/07/20 08:22:16;;;;;;;7.70;4.70;;;;;;;32.40;45.73;96746.11;110153;1242;69287;-75
2023/07/20 08:24:45;;;;;;;6.10;4.20;;;;;;;32.28;47.13;96746.02;110157;1248;59760;-76
2023/07/20 08:27:14;;;;;;;6.30;4.10;;;;;;;32.47;47.77;96746.72;110181;1242;59618;-77
2023/07/20 08:29:43;;;;;;;6.10;4.00;;;;;;;32.83;46.98;96745.80;110102;1244;70823;-76
2023/07/20 08:32:14;;;;;;;4.70;3.90;;;;;;;33.27;46.31;96748.73;110213;1241;69255;-76
2023/07/20 08:34:43;;;;;;;4.80;3.90;;;;;;;33.72;46.60;96745.86;110184;1240;70024;-77
2023/07/20 08:37:12;;;;;;;4.80;3.80;;;;;;;33.96;46.12;96744.50;110238;1242;59690;-76
2023/07/20 08:39:41;;;;;;;4.80;3.60;;;;;;;33.85;46.39;96741.48;110168;1242;59659;-76
2023/07/20 08:42:12;;;;;;;4.50;3.30;;;;;;;34.22;46.14;96742.55;110210;1242;71383;-77
2023/07/20 08:44:42;;;;;;;5.60;3.80;;;;;;;34.60;45.01;96748.48;110181;1242;68291;-76
2023/07/20 08:47:17;;;;;;;4.10;3.40;;;;;;;34.76;43.91;96749.19;110172;1242;69866;-76
2023/07/20 08:49:49;;;;;;;6.30;4.00;;;;;;;34.82;43.84;96742.90;110128;1245;59720;-77
2023/07/20 08:52:18;;;;;;;4.80;4.00;;;;;;;34.43;43.46;96740.98;110386;1240;59763;-76
2023/07/20 08:54:47;;;;;;;5.50;4.10;;;;;;;34.60;43.59;96737.69;110182;1243;71431;-78
2023/07/20 08:57:18;;;;;;;4.20;3.50;;;;;;;34.67;43.20;96739.63;110219;1248;68182;-77
2023/07/20 08:59:48;;;;;;;5.30;4.10;;;;;;;34.45;42.05;96739.36;110185;1242;69250;-77
2023/07/20 09:02:18;;;;;;;5.40;3.50;;;;;;;34.26;43.12;96740.84;110433;1241;59745;-75
2023/07/20 09:04:48;;;;;;;5.00;3.80;;;;;;;34.58;42.43;96743.55;110409;1242;59636;-76
2023/07/20 09:07:20;;;;;;;6.00;4.40;;;;;;;33.92;41.57;96736.42;110263;1240;71376;-76
2023/07/20 09:09:48;;;;;;;5.90;4.40;;;;;;;33.63;42.20;96730.23;110227;1242;68606;-78
2023/07/20 09:12:17;;;;;;;6.10;4.40;;;;;;;33.07;44.27;96730.06;110187;1242;69956;-77
2023/07/20 09:14:46;;;;;;;7.90;6.20;;;;;;;32.46;44.86;96720.72;110250;1241;59763;-77
2023/07/20 09:17:16;;;;;;;8.00;5.40;;;;;;;32.64;43.09;96724.30;110215;1242;59726;-77
2023/07/20 09:19:48;;;;;;;9.30;6.60;;;;;;;32.74;42.95;96722.64;110214;1242;70475;-77
2023/07/20 09:22:17;;;;;;;6.60;5.40;;;;;;;33.11;42.53;96716.75;110333;1242;69187;-77
2023/07/20 09:24:46;;;;;;;6.50;5.20;;;;;;;33.33;42.46;96720.03;110129;1243;69287;-76
2023/07/20 09:27:15;;;;;;;11.10;5.60;;;;;;;33.41;43.06;96715.96;110292;1244;59650;-77
2023/07/20 09:29:52;;;;;;;6.40;5.30;;;;;;;33.56;42.32;96715.19;110296;1242;59631;-77
2023/07/20 09:32:21;;;;;;;11.60;7.50;;;;;;;33.55;41.87;96712.46;110303;1241;71484;-76
2023/07/20 09:34:53;;;;;;;6.30;5.10;;;;;;;33.66;41.35;96710.71;110215;1242;70248;-76
2023/07/20 09:37:23;;;;;;;6.50;5.20;;;;;;;34.11;41.34;96714.88;110165;1241;69276;-78
2023/07/20 09:39:53;;;;;;;7.00;5.20;;;;;;;34.53;39.93;96713.79;110182;1242;59692;-77
2023/07/20 09:42:27;;;;;;;5.00;4.40;;;;;;;34.67;40.57;96706.75;110114;1246;59733;-77
2023/07/20 09:44:59;;;;;;;5.20;3.70;;;;;;;34.60;39.67;96707.84;110175;1241;72113;-77
2023/07/20 09:47:31;;;;;;;5.30;4.20;;;;;;;34.86;40.25;96704.80;110314;1242;69837;-77
2023/07/20 09:50:01;;;;;;;5.60;3.80;;;;;;;35.18;39.20;96703.58;110309;1240;70330;-77
2023/07/20 09:52:34;;;;;;;5.80;3.90;;;;;;;35.53;38.28;96701.15;110288;1242;59664;-77
2023/07/20 09:55:07;;;;;;;5.60;4.20;;;;;;;35.76;37.55;96699.52;110116;1245;59668;-77
2023/07/20 09:57:37;;;;;;;6.90;4.30;;;;;;;35.73;37.37;96693.45;110157;1241;71284;-77
2023/07/20 10:00:14;;;;;;;7.50;5.20;;;;;;;35.77;37.34;96684.05;110825;1242;68439;-77
2023/07/20 10:02:47;;;;;;;5.20;4.10;;;;;;;35.94;37.36;96680.55;110233;1242;69228;-78
2023/07/20 10:05:16;;;;;;;5.30;4.30;;;;;;;35.77;37.86;96678.78;110273;1242;59744;-77
2023/07/20 10:07:52;;;;;;;7.20;4.30;;;;;;;35.68;38.68;96676.50;110250;1241;59702;-76
2023/07/20 10:10:44;;;;;;;4.80;3.90;;;;;;;35.66;38.58;96668.41;110178;1240;71653;-77
2023/07/20 10:13:25;;;;;;;7.30;4.90;;;;;;;35.89;38.13;96662.27;110191;1242;69087;-78
2023/07/20 10:16:02;;;;;;;5.20;4.60;;;;;;;35.67;37.73;96654.23;110179;1242;69898;-78
2023/07/20 10:18:50;;;;;;;8.30;4.70;;;;;;;35.10;37.56;96653.30;110181;1242;59760;-77
2023/07/20 10:21:24;;;;;;;6.30;4.60;;;;;;;34.80;36.92;96660.30;110202;1242;59782;-78
2023/07/20 10:23:58;;;;;;;8.00;5.10;;;;;;;34.89;37.19;96657.48;110242;1241;71894;-77
2023/07/20 10:26:27;;;;;;;6.60;4.40;;;;;;;34.50;38.33;96655.04;110148;1240;68836;-77
2023/07/20 10:28:57;;;;;;;5.70;5.00;;;;;;;34.02;39.96;96652.08;110264;1240;69262;-78
2023/07/20 10:31:28;;;;;;;7.00;4.70;;;;;;;33.58;41.66;96656.58;110203;1242;59747;-78
2023/07/20 10:33:58;;;;;;;4.90;4.30;;;;;;;33.12;39.55;96672.30;110157;1244;59682;-78
2023/07/20 10:36:28;;;;;;;4.90;4.00;;;;;;;33.00;40.85;96689.80;110235;1242;71419;-76
2023/07/20 10:39:00;;;;;;;4.90;4.10;;;;;;;32.79;40.55;96683.77;110213;1242;69304;-78
2023/07/20 10:41:42;;;;;;;5.30;4.30;;;;;;;32.52;40.54;96685.45;110337;1242;68519;-78
2023/07/20 10:44:13;;;;;;;5.80;4.40;;;;;;;32.12;41.20;96697.67;110201;1242;59740;-78
2023/07/20 10:46:46;;;;;;;5.80;4.10;;;;;;;31.77;42.09;96700.45;110238;1241;59672;-77
2023/07/20 10:49:16;;;;;;;4.70;4.20;;;;;;;31.40;42.54;96696.96;110259;1241;72003;-78
2023/07/20 10:51:47;;;;;;;5.50;3.80;;;;;;;31.00;43.06;96692.90;110398;1240;68568;-76
2023/07/20 10:54:17;;;;;;;6.30;3.90;;;;;;;30.59;43.72;96695.73;110275;1242;69272;-78
2023/07/20 10:56:50;;;;;;;5.10;4.00;;;;;;;30.28;45.14;96692.14;110247;1241;59705;-77
2023/07/20 10:59:35;;;;;;;4.80;4.00;;;;;;;29.93;48.63;96687.96;110273;1241;59695;-78
2023/07/20 11:02:08;;;;;;;4.90;4.20;;;;;;;29.31;56.65;96687.11;110698;1242;70624;-75
2023/07/20 11:04:42;;;;;;;7.20;4.60;;;;;;;28.80;56.27;96686.70;110247;1241;69076;-77
2023/07/20 11:07:16;;;;;;;4.90;4.10;;;;;;;28.41;54.68;96678.23;110210;1242;69909;-76
2023/07/20 11:09:45;;;;;;;5.60;4.00;;;;;;;28.05;55.76;96670.59;110223;1241;59682;-77
2023/07/20 11:12:18;;;;;;;6.80;4.60;;;;;;;27.75;56.85;96682.77;110414;1242;59685;-77
2023/07/20 11:14:54;;;;;;;6.90;4.20;;;;;;;27.44;58.52;96686.10;110210;1242;72322;-77
2023/07/20 11:17:32;;;;;;;8.20;4.50;;;;;;;27.08;58.51;96690.66;110236;1242;68702;-76
2023/07/20 11:20:03;;;;;;;6.30;4.60;;;;;;;26.76;58.63;96692.03;110279;1242;69230;-77
2023/07/20 11:22:36;;;;;;;6.60;4.90;;;;;;;26.26;63.09;96698.40;110235;1242;59701;-77
2023/07/20 11:25:05;;;;;;;7.40;4.70;;;;;;;25.30;68.25;96707.45;110254;1242;59827;-76
2023/07/20 11:27:45;;;;;;;8.10;5.10;;;;;;;24.91;68.50;96711.14;110298;1242;71990;-77
2023/07/20 11:30:18;;;;;;;7.20;5.40;;;;;;;24.36;70.71;96701.46;110288;1242;69200;-77
2023/07/20 11:32:50;;;;;;;7.90;6.00;;;;;;;23.82;76.42;96729.37;110227;1242;69254;-77
2023/07/20 11:35:19;;;;;;;8.30;6.00;;;;;;;23.11;81.66;96747.09;110275;1242;59695;-77
2023/07/20 11:37:48;;;;;;;9.90;6.00;;;;;;;22.70;84.11;96743.04;110312;1240;59686;-77
2023/07/20 11:40:17;;;;;;;7.80;5.40;;;;;;;22.27;85.49;96751.48;110309;1241;71932;-76
2023/07/20 11:42:46;;;;;;;7.30;5.70;;;;;;;22.16;82.68;96745.27;110209;1240;69279;-76
2023/07/20 11:45:20;;;;;;;7.80;6.00;;;;;;;21.99;82.05;96746.22;110211;1242;69598;-76